createdAt,value
2018-07-22T00:01:34.158Z,5.50
2018-07-22T00:04:03.084Z,5.80
2018-07-22T00:06:31.991Z,6.47
2018-07-22T00:09:00.901Z,6.10
2018-07-22T00:11:30.125Z,5.83
2018-07-22T00:13:59.054Z,6.57
2018-07-22T00:16:27.993Z,6.03
2018-07-22T00:18:56.918Z,6.57
2018-07-22T00:21:25.807Z,5.43
2018-07-22T00:23:54.798Z,5.67
2018-07-22T00:26:23.719Z,6.93
2018-07-22T00:28:53.337Z,5.93
2018-07-22T00:31:22.255Z,5.97
2018-07-22T00:33:51.167Z,5.70
2018-07-22T00:36:20.200Z,5.87
2018-07-22T00:38:49.116Z,6.10
2018-07-22T00:41:18.014Z,6.73
2018-07-22T00:43:47.009Z,6.90
2018-07-22T00:46:15.907Z,5.80
2018-07-22T00:48:45.013Z,6.47
2018-07-22T00:51:13.952Z,7.37
2018-07-22T00:53:42.865Z,6.97
2018-07-22T00:56:21.445Z,5.90
2018-07-22T00:58:50.347Z,6.93
2018-07-22T01:01:20.022Z,6.77
2018-07-22T01:03:49.321Z,6.23
2018-07-22T01:06:18.236Z,6.73
2018-07-22T01:08:47.137Z,6.03
2018-07-22T01:11:16.261Z,6.60
2018-07-22T01:13:45.239Z,6.43
2018-07-22T01:16:14.149Z,7.13
2018-07-22T01:18:43.035Z,5.20
2018-07-22T01:21:11.951Z,6.33
2018-07-22T01:23:40.887Z,6.57
2018-07-22T01:26:09.972Z,6.77
2018-07-22T01:28:38.948Z,6.20
2018-07-22T01:31:08.056Z,6.50
2018-07-22T01:33:36.968Z,6.10
2018-07-22T01:36:05.935Z,6.27
2018-07-22T01:38:34.843Z,6.13
2018-07-22T01:41:03.765Z,6.17
2018-07-22T01:43:32.757Z,6.80
2018-07-22T01:46:01.689Z,6.20
2018-07-22T01:48:30.644Z,6.33
2018-07-22T01:50:59.557Z,6.40
2018-07-22T01:53:28.581Z,6.07
2018-07-22T01:55:57.489Z,6.40
2018-07-22T01:58:26.384Z,5.77
2018-07-22T02:00:55.284Z,6.00
2018-07-22T02:03:24.218Z,6.63
2018-07-22T02:05:53.113Z,5.33
2018-07-22T02:08:22.061Z,5.40
2018-07-22T02:10:51.376Z,6.30
2018-07-22T02:13:20.369Z,6.73
2018-07-22T02:15:49.276Z,6.77
2018-07-22T02:18:18.216Z,6.40
2018-07-22T02:20:47.206Z,6.40
2018-07-22T02:23:16.505Z,5.97
2018-07-22T02:25:45.416Z,6.30
2018-07-22T02:28:14.329Z,7.37
2018-07-22T02:30:43.308Z,6.80
2018-07-22T02:33:12.256Z,6.73
2018-07-22T02:35:41.205Z,7.30
2018-07-22T02:38:10.107Z,6.60
2018-07-22T02:40:39.024Z,7.07
2018-07-22T02:43:08.034Z,7.67
2018-07-22T02:45:37.045Z,7.03
2018-07-22T02:48:06.007Z,6.83
2018-07-22T02:50:34.910Z,7.63
2018-07-22T02:53:03.868Z,6.83
2018-07-22T02:55:32.777Z,6.43
2018-07-22T02:58:01.693Z,6.40
2018-07-22T03:00:30.686Z,7.07
2018-07-22T03:02:59.620Z,6.77
2018-07-22T03:05:28.549Z,7.33
2018-07-22T03:07:57.444Z,7.20
2018-07-22T03:10:26.345Z,7.40
2018-07-22T03:12:55.268Z,6.40
2018-07-22T03:15:24.263Z,7.03
2018-07-22T03:17:53.172Z,8.17
2018-07-22T03:20:22.118Z,6.83
2018-07-22T03:22:51.032Z,7.00
2018-07-22T03:25:20.024Z,7.30
2018-07-22T03:27:48.900Z,6.60
2018-07-22T03:30:17.808Z,7.03
2018-07-22T03:32:46.989Z,7.93
2018-07-22T03:35:16.337Z,8.23
2018-07-22T03:37:45.537Z,8.03
2018-07-22T03:40:14.600Z,8.50
2018-07-22T03:42:43.535Z,9.80
2018-07-22T03:45:12.452Z,10.93
2018-07-22T03:47:41.432Z,11.87
2018-07-22T03:50:10.348Z,11.30
2018-07-22T03:52:39.279Z,13.10
2018-07-22T03:55:08.277Z,10.97
2018-07-22T03:57:37.286Z,10.07
2018-07-22T04:00:06.382Z,10.40
2018-07-22T04:02:35.306Z,12.10
2018-07-22T04:05:04.247Z,11.80
2018-07-22T04:07:33.165Z,12.43
2018-07-22T04:10:02.242Z,11.77
2018-07-22T04:12:32.161Z,12.30
2018-07-22T04:15:02.767Z,12.50
2018-07-22T04:17:31.731Z,10.20
2018-07-22T04:20:00.656Z,12.50
2018-07-22T04:22:29.603Z,12.00
2018-07-22T04:24:58.506Z,12.27
2018-07-22T04:27:27.436Z,13.20
2018-07-22T04:29:56.416Z,13.10
2018-07-22T04:32:25.360Z,12.67
2018-07-22T04:34:54.332Z,13.57
2018-07-22T04:37:23.666Z,12.30
2018-07-22T04:39:52.588Z,11.13
2018-07-22T04:42:21.502Z,13.77
2018-07-22T04:44:50.543Z,12.63
2018-07-22T04:47:19.539Z,14.00
2018-07-22T04:49:48.498Z,14.13
2018-07-22T04:52:17.396Z,14.03
2018-07-22T04:54:46.322Z,13.10
2018-07-22T04:57:15.245Z,14.83
2018-07-22T04:59:44.372Z,13.47
2018-07-22T05:02:13.276Z,14.53
2018-07-22T05:04:42.355Z,14.17
2018-07-22T05:07:11.420Z,15.43
2018-07-22T05:09:40.347Z,14.00
2018-07-22T05:12:09.260Z,14.27
2018-07-22T05:14:38.273Z,14.73
2018-07-22T05:17:07.208Z,13.07
2018-07-22T05:19:36.216Z,15.07
2018-07-22T05:22:05.152Z,16.70
2018-07-22T05:24:34.232Z,14.10
2018-07-22T05:27:03.209Z,15.33
2018-07-22T05:29:32.139Z,13.73
2018-07-22T05:32:01.184Z,14.90
2018-07-22T05:34:30.120Z,15.07
2018-07-22T05:36:59.048Z,15.00
2018-07-22T05:39:28.061Z,15.33
2018-07-22T05:41:56.988Z,14.33
2018-07-22T05:44:25.907Z,13.63
2018-07-22T05:46:54.845Z,14.73
2018-07-22T05:49:23.761Z,15.00
2018-07-22T05:51:52.683Z,14.57
2018-07-22T05:54:21.756Z,14.20
2018-07-22T05:56:50.664Z,14.83
2018-07-22T05:59:19.589Z,16.20
2018-07-22T06:01:48.503Z,14.10
2018-07-22T06:04:17.508Z,15.07
2018-07-22T06:06:46.432Z,15.27
2018-07-22T06:09:15.344Z,13.73
2018-07-22T06:11:44.328Z,13.43
2018-07-22T06:14:13.228Z,12.93
2018-07-22T06:16:42.204Z,13.37
2018-07-22T06:19:11.088Z,13.27
2018-07-22T06:21:40.016Z,13.27
2018-07-22T06:24:09.056Z,13.70
2018-07-22T06:26:37.994Z,11.73
2018-07-22T06:29:07.261Z,13.50
2018-07-22T06:31:36.200Z,12.53
2018-07-22T06:34:05.132Z,12.00
2018-07-22T06:36:34.058Z,12.63
2018-07-22T06:39:02.993Z,12.53
2018-07-22T06:41:31.935Z,14.90
2018-07-22T06:44:00.848Z,12.47
2018-07-22T06:46:29.839Z,13.40
2018-07-22T06:48:58.775Z,12.83
2018-07-22T06:51:27.722Z,11.43
2018-07-22T06:53:56.682Z,10.97
2018-07-22T06:56:25.697Z,11.13
2018-07-22T06:58:54.983Z,12.03
2018-07-22T07:01:23.915Z,10.67
2018-07-22T07:03:53.101Z,11.27
2018-07-22T07:06:22.142Z,11.07
2018-07-22T07:08:51.172Z,10.53
2018-07-22T07:11:20.147Z,9.20
2018-07-22T07:13:49.110Z,10.37
2018-07-22T07:16:18.188Z,9.97
2018-07-22T07:18:47.134Z,10.23
2018-07-22T07:21:16.064Z,9.73
2018-07-22T07:23:44.984Z,9.40
2018-07-22T07:26:14.095Z,9.73
2018-07-22T07:28:43.107Z,9.23
2018-07-22T07:31:12.235Z,9.67
2018-07-22T07:33:41.216Z,10.13
2018-07-22T07:36:10.169Z,8.45
2018-07-22T07:38:39.069Z,8.68
2018-07-22T07:41:07.987Z,8.77
2018-07-22T07:43:36.974Z,9.00
2018-07-22T07:46:06.592Z,9.80
2018-07-22T07:48:35.550Z,8.78
2018-07-22T07:51:04.620Z,6.87
2018-07-22T07:53:33.644Z,7.42
2018-07-22T07:56:02.679Z,8.13
2018-07-22T07:58:31.616Z,7.97
2018-07-22T08:01:01.214Z,6.90
2018-07-22T08:03:30.469Z,7.20
2018-07-22T08:05:59.437Z,7.42
2018-07-22T08:08:28.412Z,6.72
2018-07-22T08:10:57.400Z,8.33
2018-07-22T08:13:26.331Z,7.12
2018-07-22T08:15:55.850Z,7.65
2018-07-22T08:18:24.792Z,8.53
2018-07-22T08:20:53.848Z,8.60
2018-07-22T08:23:22.784Z,8.35
2018-07-22T08:25:52.188Z,7.37
2018-07-22T08:28:32.491Z,7.50
2018-07-22T08:31:01.518Z,7.95
2018-07-22T08:33:30.424Z,8.90
2018-07-22T08:35:59.362Z,7.35
2018-07-22T08:38:28.318Z,6.92
2018-07-22T08:40:57.347Z,8.08
2018-07-22T08:43:26.256Z,7.85
2018-07-22T08:45:55.227Z,7.50
2018-07-22T08:48:24.147Z,7.40
2018-07-22T08:50:53.168Z,8.20
2018-07-22T08:53:22.099Z,7.80
2018-07-22T08:55:51.112Z,7.87
2018-07-22T08:58:20.134Z,7.80
2018-07-22T09:00:49.138Z,7.53
2018-07-22T09:03:18.101Z,8.03
2018-07-22T09:05:47.048Z,8.10
2018-07-22T09:08:16.015Z,8.28
2018-07-22T09:10:44.876Z,8.40
2018-07-22T09:13:13.828Z,7.03
2018-07-22T09:15:42.830Z,7.97
2018-07-22T09:18:11.762Z,7.67
2018-07-22T09:20:40.743Z,7.60
2018-07-22T09:23:09.658Z,8.20
2018-07-22T09:25:38.627Z,6.87
2018-07-22T09:28:07.559Z,7.03
2018-07-22T09:30:36.469Z,6.55
2018-07-22T09:33:05.535Z,6.97
2018-07-22T09:35:34.547Z,6.40
2018-07-22T09:38:03.517Z,6.75
2018-07-22T09:40:32.454Z,6.42
2018-07-22T09:43:01.356Z,6.22
2018-07-22T09:45:30.357Z,6.62
2018-07-22T09:47:59.293Z,7.28
2018-07-22T09:50:28.219Z,6.20
2018-07-22T09:52:57.151Z,7.60
2018-07-22T09:55:26.094Z,6.55
2018-07-22T09:57:55.026Z,6.87
2018-07-22T10:00:29.349Z,7.03
2018-07-22T10:02:58.324Z,7.05
2018-07-22T10:05:27.301Z,6.83
2018-07-22T10:07:56.236Z,7.58
2018-07-22T10:10:25.253Z,8.20
2018-07-22T10:12:54.235Z,7.83
2018-07-22T10:15:23.340Z,7.62
2018-07-22T10:17:52.355Z,6.92
2018-07-22T10:20:21.357Z,7.15
2018-07-22T10:22:50.295Z,7.28
2018-07-22T10:25:19.196Z,7.75
2018-07-22T10:27:48.125Z,7.30
2018-07-22T10:30:17.121Z,7.40
2018-07-22T10:32:46.021Z,7.03
2018-07-22T10:35:14.931Z,6.15
2018-07-22T10:37:43.844Z,7.15
2018-07-22T10:40:13.477Z,6.50
2018-07-22T10:42:42.385Z,7.03
2018-07-22T10:45:11.468Z,7.00
2018-07-22T10:47:40.733Z,7.83
2018-07-22T10:50:09.960Z,7.47
2018-07-22T10:52:38.863Z,6.22
2018-07-22T10:55:07.853Z,6.70
2018-07-22T10:57:36.792Z,6.45
2018-07-22T11:00:06.748Z,6.97
2018-07-22T11:02:35.859Z,6.58
2018-07-22T11:05:06.075Z,7.12
2018-07-22T11:07:34.962Z,6.67
2018-07-22T11:10:05.479Z,7.05
2018-07-22T11:12:34.476Z,6.92
2018-07-22T11:15:03.443Z,6.85
2018-07-22T11:17:32.412Z,7.25
2018-07-22T11:20:01.459Z,6.97
2018-07-22T11:22:31.357Z,7.40
2018-07-22T11:25:02.013Z,7.50
2018-07-22T11:27:30.968Z,6.08
2018-07-22T11:29:59.889Z,6.92
2018-07-22T11:32:28.852Z,8.10
2018-07-22T11:34:57.824Z,6.22
2018-07-22T11:37:26.850Z,6.70
2018-07-22T11:42:21.821Z,6.85
2018-07-22T11:44:50.741Z,6.53
2018-07-22T11:47:19.652Z,7.75
2018-07-22T11:49:48.569Z,6.58
2018-07-22T11:52:17.484Z,6.50
2018-07-22T11:54:46.430Z,7.00
2018-07-22T11:57:15.480Z,7.15
2018-07-22T11:59:44.419Z,6.50
2018-07-22T12:02:13.346Z,7.10
2018-07-22T12:04:42.251Z,7.30
2018-07-22T12:07:11.217Z,6.08
2018-07-22T12:09:40.139Z,6.95
2018-07-22T12:12:09.060Z,6.72
2018-07-22T12:14:38.081Z,6.45
2018-07-22T12:17:07.007Z,7.08
2018-07-22T12:19:35.948Z,7.05
2018-07-22T12:22:05.012Z,7.87
2018-07-22T12:24:33.929Z,6.45
2018-07-22T12:27:02.867Z,6.90
2018-07-22T12:29:31.816Z,6.75
2018-07-22T12:32:00.751Z,7.10
2018-07-22T12:34:29.724Z,6.35
2018-07-22T12:36:58.669Z,7.40
2018-07-22T12:39:27.630Z,6.92
2018-07-22T12:41:56.559Z,6.67
2018-07-22T12:44:25.531Z,7.42
2018-07-22T12:46:54.468Z,7.85
2018-07-22T12:49:23.376Z,7.30
2018-07-22T12:51:52.380Z,7.33
2018-07-22T12:54:21.312Z,7.45
2018-07-22T12:56:50.303Z,8.00
2018-07-22T12:59:19.240Z,7.03
2018-07-22T13:01:48.327Z,6.35
2018-07-22T13:04:17.324Z,10.10
2018-07-22T13:06:46.468Z,6.83
2018-07-22T13:09:15.404Z,7.03
2018-07-22T13:11:44.335Z,7.03
2018-07-22T13:14:13.298Z,7.00
2018-07-22T13:16:42.199Z,6.92
2018-07-22T13:19:11.116Z,7.55
2018-07-22T13:21:40.045Z,7.78
2018-07-22T13:24:09.036Z,6.75
2018-07-22T13:26:37.965Z,7.67
2018-07-22T13:29:06.923Z,7.25
2018-07-22T13:31:36.043Z,7.28
2018-07-22T13:34:05.308Z,6.60
2018-07-22T13:36:34.245Z,7.50
2018-07-22T13:39:03.202Z,6.95
2018-07-22T13:41:32.113Z,8.85
2018-07-22T13:44:01.109Z,6.08
2018-07-22T13:46:30.040Z,7.33
2018-07-22T13:48:59.013Z,6.60
2018-07-22T13:51:28.189Z,8.03
2018-07-22T13:53:57.076Z,6.10
2018-07-22T13:56:26.067Z,6.85
2018-07-22T13:58:54.972Z,6.62
2018-07-22T14:01:23.894Z,6.45
2018-07-22T14:03:52.776Z,6.80
2018-07-22T14:06:21.713Z,6.92
2018-07-22T14:08:50.595Z,7.22
2018-07-22T14:11:19.623Z,7.62
2018-07-22T14:13:48.565Z,7.00
2018-07-22T14:16:17.649Z,7.95
2018-07-22T14:18:46.579Z,7.45
2018-07-22T14:21:15.636Z,8.53
2018-07-22T14:23:44.682Z,6.62
2018-07-22T14:26:13.616Z,6.67
2018-07-22T14:28:42.585Z,7.87
2018-07-22T14:31:11.661Z,7.90
2018-07-22T14:33:40.580Z,8.18
2018-07-22T14:36:09.554Z,7.72
2018-07-22T14:38:38.444Z,7.22
2018-07-22T14:41:07.517Z,8.48
2018-07-22T14:43:36.289Z,7.97
2018-07-22T14:46:05.220Z,7.75
2018-07-22T14:48:34.159Z,8.43
2018-07-22T14:51:03.135Z,8.33
2018-07-22T14:53:32.129Z,7.97
2018-07-22T14:56:01.035Z,8.33
2018-07-22T14:58:29.966Z,8.58
2018-07-22T15:00:58.992Z,8.08
2018-07-22T15:03:27.901Z,8.58
2018-07-22T15:05:56.831Z,7.60
2018-07-22T15:08:25.832Z,8.40
2018-07-22T15:10:54.930Z,7.67
2018-07-22T15:13:24.081Z,7.87
2018-07-22T15:15:53.003Z,7.30
2018-07-22T15:18:21.942Z,8.57
2018-07-22T15:20:50.868Z,8.50
2018-07-22T15:23:19.824Z,8.80
2018-07-22T15:25:48.719Z,9.53
2018-07-22T15:28:17.655Z,8.27
2018-07-22T15:30:46.708Z,10.03
2018-07-22T15:33:15.634Z,8.73
2018-07-22T15:35:44.554Z,8.85
2018-07-22T15:38:13.660Z,9.67
2018-07-22T15:40:42.690Z,9.60
2018-07-22T15:43:11.695Z,9.33
2018-07-22T15:45:40.614Z,8.90
2018-07-22T15:48:09.514Z,9.75
2018-07-22T15:50:38.596Z,9.30
2018-07-22T15:53:07.717Z,8.88
2018-07-22T15:55:36.957Z,9.10
2018-07-22T15:58:05.692Z,8.60
2018-07-22T16:00:34.827Z,8.47
2018-07-22T16:03:03.824Z,9.73
2018-07-22T16:05:32.768Z,8.50
2018-07-22T16:08:01.789Z,8.93
2018-07-22T16:10:30.742Z,8.60
2018-07-22T16:12:59.673Z,9.03
2018-07-22T16:15:28.726Z,8.47
2018-07-22T16:17:57.746Z,8.60
2018-07-22T16:20:26.673Z,8.40
2018-07-22T16:22:55.620Z,8.30
2018-07-22T16:25:24.589Z,8.47
2018-07-22T16:27:53.600Z,9.43
2018-07-22T16:30:22.563Z,8.17
2018-07-22T16:32:51.548Z,11.63
2018-07-22T16:35:20.629Z,8.67
2018-07-22T16:37:49.584Z,8.27
2018-07-22T16:40:18.631Z,9.53
2018-07-22T16:42:47.532Z,8.30
2018-07-22T16:45:16.444Z,9.60
2018-07-22T16:47:45.363Z,8.83
2018-07-22T16:50:14.367Z,8.23
2018-07-22T16:52:43.257Z,8.73
2018-07-22T16:55:12.198Z,8.50
2018-07-22T16:57:41.112Z,7.77
2018-07-22T17:00:10.313Z,8.07
2018-07-22T17:02:39.315Z,7.37
2018-07-22T17:05:08.375Z,7.87
2018-07-22T17:07:38.160Z,8.53
2018-07-22T17:10:07.092Z,7.97
2018-07-22T17:12:36.033Z,8.17
2018-07-22T17:15:04.961Z,8.70
2018-07-22T17:17:33.854Z,7.13
2018-07-22T17:20:02.967Z,7.47
2018-07-22T17:22:31.917Z,8.33
2018-07-22T17:25:00.833Z,8.57
2018-07-22T17:27:29.740Z,8.37
2018-07-22T17:29:58.730Z,8.13
2018-07-22T17:32:27.758Z,9.67
2018-07-22T17:34:56.672Z,8.87
2018-07-22T17:37:26.043Z,8.70
2018-07-22T17:39:58.724Z,8.80
2018-07-22T17:42:28.957Z,8.60
2018-07-22T17:44:58.437Z,8.53
2018-07-22T17:47:28.252Z,8.83
2018-07-22T17:49:57.717Z,9.20
2018-07-22T17:52:27.152Z,9.30
2018-07-22T17:54:56.068Z,7.90
2018-07-22T17:57:25.004Z,8.57
2018-07-22T17:59:54.114Z,9.33
2018-07-22T18:02:23.023Z,8.83
2018-07-22T18:04:52.414Z,8.87
2018-07-22T18:07:21.617Z,7.63
2018-07-22T18:15:46.629Z,8.43
2018-07-22T18:18:16.132Z,8.00
2018-07-22T18:20:47.071Z,9.07
2018-07-22T18:23:16.045Z,8.50
2018-07-22T18:25:45.546Z,8.37
2018-07-22T18:28:15.204Z,9.00
2018-07-22T18:30:44.764Z,8.87
2018-07-22T18:33:13.659Z,9.20
2018-07-22T18:35:42.624Z,8.73
2018-07-22T18:38:11.599Z,8.30
2018-07-22T18:40:40.568Z,7.80
2018-07-22T18:43:09.521Z,8.67
2018-07-22T18:45:38.547Z,8.40
2018-07-22T18:48:07.473Z,8.10
2018-07-22T18:50:36.452Z,9.17
2018-07-22T18:53:05.460Z,8.30
2018-07-22T18:55:34.480Z,8.43
2018-07-22T18:58:03.562Z,8.67
2018-07-22T19:00:32.471Z,8.40
2018-07-22T19:03:01.529Z,8.73
2018-07-22T19:05:30.457Z,8.33
2018-07-22T19:07:59.403Z,8.70
2018-07-22T19:10:28.324Z,8.37
2018-07-22T19:12:57.562Z,8.63
2018-07-22T19:15:27.638Z,7.83
2018-07-22T19:17:56.540Z,8.20
2018-07-22T19:20:25.487Z,8.67
2018-07-22T19:22:54.439Z,8.47
2018-07-22T19:25:23.357Z,8.40
2018-07-22T19:27:52.294Z,9.50
2018-07-22T19:30:21.232Z,9.57
2018-07-22T19:32:50.178Z,8.43
2018-07-22T19:35:19.094Z,8.90
2018-07-22T19:37:48.047Z,9.27
2018-07-22T19:40:16.992Z,9.43
2018-07-22T19:42:45.883Z,9.70
2018-07-22T19:45:14.851Z,9.70
2018-07-22T19:47:43.813Z,8.37
2018-07-22T19:50:12.747Z,10.00
2018-07-22T19:52:41.651Z,8.07
2018-07-22T19:55:10.597Z,8.50
2018-07-22T19:57:39.604Z,8.03
2018-07-22T20:00:08.569Z,8.93
2018-07-22T20:02:37.510Z,8.07
2018-07-22T20:05:06.434Z,8.10
2018-07-22T20:07:35.346Z,8.40
2018-07-22T20:10:04.750Z,8.93
2018-07-22T20:12:33.657Z,8.43
2018-07-22T20:15:02.570Z,9.43
2018-07-22T20:17:31.481Z,8.30
2018-07-22T20:20:00.393Z,8.60
2018-07-22T20:22:29.401Z,7.40
2018-07-22T20:24:58.348Z,8.50
2018-07-22T20:27:27.267Z,8.27
2018-07-22T20:29:56.161Z,9.40
2018-07-22T20:32:25.050Z,9.03
2018-07-22T20:34:54.038Z,7.50
2018-07-22T20:37:22.977Z,7.57
2018-07-22T20:39:51.894Z,7.90
2018-07-22T20:42:20.808Z,8.20
2018-07-22T20:44:49.727Z,8.17
2018-07-22T20:47:18.760Z,7.70
2018-07-22T20:49:47.807Z,9.97
2018-07-22T20:52:16.752Z,8.23
2018-07-22T20:54:45.697Z,7.50
2018-07-22T20:57:14.616Z,7.50
2018-07-22T20:59:43.511Z,8.37
2018-07-22T21:02:12.451Z,8.07
2018-07-22T21:04:41.354Z,8.17
2018-07-22T21:07:10.604Z,8.13
2018-07-22T21:09:39.529Z,9.10
2018-07-22T21:12:50.187Z,7.20
2018-07-22T21:15:19.248Z,8.73
2018-07-22T21:17:49.099Z,9.10
2018-07-22T21:20:18.857Z,8.00
2018-07-22T21:22:47.758Z,8.37
2018-07-22T21:25:17.262Z,8.27
2018-07-22T21:27:46.285Z,7.90
2018-07-22T21:30:15.740Z,7.80
2018-07-22T21:32:44.613Z,8.70
2018-07-22T21:35:13.531Z,8.40
2018-07-22T21:37:42.443Z,8.73
2018-07-22T21:40:11.337Z,9.00
2018-07-22T21:42:40.239Z,7.90
2018-07-22T21:45:09.393Z,9.13
2018-07-22T21:47:38.348Z,8.47
2018-07-22T21:50:08.063Z,7.83
2018-07-22T21:52:36.965Z,9.93
2018-07-22T21:55:06.185Z,9.10
2018-07-22T21:57:35.280Z,8.23
2018-07-22T22:00:06.590Z,8.37
2018-07-22T22:02:35.583Z,7.57
2018-07-22T22:05:04.930Z,8.87
2018-07-22T22:07:33.808Z,8.47
2018-07-22T22:10:02.812Z,8.50
2018-07-22T22:12:32.384Z,8.50
2018-07-22T22:15:01.268Z,9.30
2018-07-22T22:17:30.164Z,9.80
2018-07-22T22:19:59.038Z,9.10
2018-07-22T22:22:27.932Z,9.47
2018-07-22T22:24:56.952Z,8.83
2018-07-22T22:27:26.866Z,9.80
2018-07-22T22:29:55.813Z,9.03
2018-07-22T22:32:24.975Z,9.47
2018-07-22T22:34:53.876Z,9.37
2018-07-22T22:37:22.779Z,10.70
2018-07-22T22:39:51.696Z,9.37
2018-07-22T22:42:20.614Z,10.40
2018-07-22T22:44:49.527Z,10.23
2018-07-22T22:47:18.420Z,9.33
2018-07-22T22:49:47.324Z,9.63
2018-07-22T22:52:16.225Z,10.20
2018-07-22T22:54:45.170Z,10.57
2018-07-22T22:57:14.024Z,9.07
2018-07-22T22:59:42.915Z,10.37
2018-07-22T23:02:11.838Z,10.10
2018-07-22T23:04:40.751Z,10.20
2018-07-22T23:07:09.680Z,10.00
2018-07-22T23:09:38.596Z,9.73
2018-07-22T23:12:07.491Z,10.07
2018-07-22T23:14:36.399Z,8.97
2018-07-22T23:17:05.324Z,9.60
2018-07-22T23:19:34.249Z,9.63
2018-07-22T23:22:03.136Z,9.97
2018-07-22T23:24:32.025Z,9.93
2018-07-22T23:27:00.952Z,11.27
2018-07-22T23:29:29.856Z,11.67
2018-07-22T23:31:58.764Z,9.73
2018-07-22T23:34:27.652Z,9.17
2018-07-22T23:36:56.583Z,10.43
2018-07-22T23:39:25.465Z,9.83
2018-07-22T23:41:54.379Z,10.27
2018-07-22T23:44:23.290Z,10.70
2018-07-22T23:46:52.208Z,11.27
2018-07-22T23:49:21.103Z,10.83
2018-07-22T23:51:50.017Z,13.17
2018-07-22T23:54:18.910Z,11.97
2018-07-22T23:56:47.805Z,12.17
2018-07-22T23:59:16.715Z,12.33
